createdAt,value
2023-04-11T00:01:13.781Z,9.80
2023-04-11T00:03:41.339Z,9.30
2023-04-11T00:06:09.062Z,9.20
2023-04-11T00:08:36.354Z,8.50
2023-04-11T00:11:03.676Z,9.20
2023-04-11T00:13:31.144Z,8.70
2023-04-11T00:15:59.350Z,9.10
2023-04-11T00:18:28.081Z,10.10
2023-04-11T00:20:55.681Z,9.10
2023-04-11T00:23:23.900Z,9.10
2023-04-11T00:25:51.356Z,9.10
2023-04-11T00:28:18.714Z,9.10
2023-04-11T00:30:46.191Z,9.20
2023-04-11T00:33:13.642Z,9.10
2023-04-11T00:35:41.322Z,9.10
2023-04-11T00:38:08.840Z,9.00
2023-04-11T00:40:36.222Z,9.00
2023-04-11T00:43:03.499Z,9.20
2023-04-11T00:45:31.024Z,9.00
2023-04-11T00:47:58.624Z,9.00
2023-04-11T00:50:26.790Z,8.90
2023-04-11T00:52:56.738Z,9.00
2023-04-11T00:55:24.520Z,9.00
2023-04-11T00:57:55.339Z,9.00
2023-04-11T01:00:25.122Z,9.00
2023-04-11T01:02:52.725Z,9.00
2023-04-11T01:05:21.054Z,8.90
2023-04-11T01:07:52.415Z,8.90
2023-04-11T01:10:19.843Z,8.90
2023-04-11T01:12:47.696Z,8.90
2023-04-11T01:15:15.435Z,9.00
2023-04-11T01:17:43.244Z,8.90
2023-04-11T01:20:11.803Z,9.00
2023-04-11T01:22:42.421Z,8.90
2023-04-11T01:25:10.314Z,8.90
2023-04-11T01:27:40.400Z,8.90
2023-04-11T01:30:08.798Z,8.80
2023-04-11T01:32:36.110Z,8.80
2023-04-11T01:35:05.399Z,8.80
2023-04-11T01:37:33.977Z,8.80
2023-04-11T01:40:02.157Z,8.80
2023-04-11T01:42:30.770Z,8.70
2023-04-11T01:44:59.384Z,8.70
2023-04-11T01:47:26.849Z,8.70
2023-04-11T01:49:54.197Z,8.70
2023-04-11T01:52:21.898Z,9.50
2023-04-11T01:54:49.365Z,8.70
2023-04-11T01:57:17.008Z,8.60
2023-04-11T01:59:44.428Z,8.60
2023-04-11T02:02:11.828Z,8.70
2023-04-11T02:04:39.469Z,8.60
2023-04-11T02:07:07.353Z,8.60
2023-04-11T02:09:34.684Z,8.60
2023-04-11T02:12:02.037Z,8.60
2023-04-11T02:14:41.026Z,8.60
2023-04-11T02:17:10.021Z,8.60
2023-04-11T02:19:38.698Z,8.60
2023-04-11T02:22:06.086Z,8.60
2023-04-11T02:24:33.436Z,8.50
2023-04-11T02:27:01.824Z,8.60
2023-04-11T02:29:29.172Z,8.50
2023-04-11T02:31:56.750Z,8.60
2023-04-11T02:34:24.466Z,8.90
2023-04-11T02:36:51.828Z,8.50
2023-04-11T02:39:23.969Z,8.50
2023-04-11T02:41:51.415Z,8.50
2023-04-11T02:44:19.792Z,8.60
2023-04-11T02:46:47.177Z,8.60
2023-04-11T02:49:14.564Z,8.50
2023-04-11T02:51:41.880Z,8.50
2023-04-11T02:54:09.195Z,8.50
2023-04-11T02:56:39.066Z,8.40
2023-04-11T02:59:07.165Z,8.40
2023-04-11T03:01:34.644Z,8.40
2023-04-11T03:04:02.166Z,8.40
2023-04-11T03:06:29.725Z,8.40
2023-04-11T03:08:57.244Z,8.50
2023-04-11T03:11:24.760Z,8.50
2023-04-11T03:13:52.045Z,8.30
2023-04-11T03:16:20.142Z,8.40
2023-04-11T03:18:47.504Z,8.40
2023-04-11T03:21:14.810Z,8.50
2023-04-11T03:23:43.515Z,8.50
2023-04-11T03:26:11.166Z,8.40
2023-04-11T03:28:38.542Z,8.40
2023-04-11T03:31:06.503Z,8.40
2023-04-11T03:33:34.067Z,8.40
2023-04-11T03:36:01.559Z,8.50
2023-04-11T03:38:29.341Z,8.40
2023-04-11T03:40:56.944Z,8.40
2023-04-11T03:43:24.461Z,8.30
2023-04-11T03:45:52.034Z,8.40
2023-04-11T03:48:20.348Z,8.30
2023-04-11T03:50:48.245Z,8.40
2023-04-11T03:53:15.747Z,8.30
2023-04-11T03:55:43.526Z,8.30
2023-04-11T03:58:11.721Z,8.30
2023-04-11T04:00:39.236Z,8.30
2023-04-11T04:03:07.356Z,8.50
2023-04-11T04:05:35.029Z,8.20
2023-04-11T04:08:02.459Z,8.20
2023-04-11T04:10:29.778Z,8.20
2023-04-11T04:12:57.220Z,8.20
2023-04-11T04:15:25.077Z,8.20
2023-04-11T04:17:53.814Z,8.20
2023-04-11T04:20:21.510Z,7.70
2023-04-11T04:22:48.913Z,8.20
2023-04-11T04:25:20.269Z,8.30
2023-04-11T04:27:48.745Z,8.20
2023-04-11T04:30:16.221Z,8.20
2023-04-11T04:32:45.097Z,8.20
2023-04-11T04:35:14.270Z,8.20
2023-04-11T04:37:45.822Z,8.20
2023-04-11T04:40:14.347Z,8.20
2023-04-11T04:42:43.118Z,8.20
2023-04-11T04:45:13.736Z,8.20
2023-04-11T04:47:41.283Z,8.10
2023-04-11T04:50:10.198Z,8.20
2023-04-11T04:52:37.545Z,8.10
2023-04-11T04:55:05.276Z,8.20
2023-04-11T04:57:32.668Z,8.20
2023-04-11T05:00:01.174Z,8.20
2023-04-11T05:02:29.169Z,8.10
2023-04-11T05:04:56.563Z,8.10
2023-04-11T05:07:23.875Z,8.70
2023-04-11T05:09:51.219Z,8.80
2023-04-11T05:12:20.476Z,8.10
2023-04-11T05:14:48.061Z,8.20
2023-04-11T05:17:16.371Z,7.90
2023-04-11T05:19:43.705Z,8.00
2023-04-11T05:22:11.213Z,8.10
2023-04-11T05:24:38.538Z,8.10
2023-04-11T05:27:05.853Z,8.00
2023-04-11T05:29:33.282Z,8.00
2023-04-11T05:32:00.717Z,8.00
2023-04-11T05:34:31.959Z,8.00
2023-04-11T05:36:59.240Z,7.90
2023-04-11T05:39:26.758Z,8.60
2023-04-11T05:41:54.021Z,7.90
2023-04-11T05:44:21.392Z,7.90
2023-04-11T05:46:49.011Z,7.90
2023-04-11T05:49:16.310Z,7.90
2023-04-11T05:51:43.601Z,7.90
2023-04-11T05:54:11.193Z,8.00
2023-04-11T05:56:39.839Z,8.00
2023-04-11T05:59:07.167Z,8.00
2023-04-11T06:01:34.767Z,7.90
2023-04-11T06:04:03.069Z,8.00
2023-04-11T06:06:31.787Z,8.00
2023-04-11T06:08:59.838Z,8.00
2023-04-11T06:11:29.135Z,8.00
2023-04-11T06:13:56.524Z,8.70
2023-04-11T06:16:24.393Z,8.10
2023-04-11T06:18:52.003Z,8.10
2023-04-11T06:21:19.289Z,8.10
2023-04-11T06:23:46.738Z,8.10
2023-04-11T06:26:14.077Z,8.10
2023-04-11T06:28:41.402Z,8.80
2023-04-11T06:31:11.696Z,8.20
2023-04-11T06:33:38.978Z,8.70
2023-04-11T06:36:06.847Z,8.20
2023-04-11T06:38:36.714Z,8.30
2023-04-11T06:41:04.145Z,8.30
2023-04-11T06:43:32.430Z,8.30
2023-04-11T06:46:00.255Z,7.40
2023-04-11T06:48:28.287Z,8.40
2023-04-11T06:50:55.857Z,8.40
2023-04-11T06:53:23.160Z,8.50
2023-04-11T06:55:50.673Z,8.50
2023-04-11T06:58:18.212Z,8.60
2023-04-11T07:00:45.669Z,9.00
2023-04-11T07:03:14.073Z,8.60
2023-04-11T07:05:41.537Z,8.70
2023-04-11T07:08:08.796Z,8.70
2023-04-11T07:10:36.112Z,8.70
2023-04-11T07:13:03.384Z,8.80
2023-04-11T07:15:30.704Z,8.80
2023-04-11T07:17:58.057Z,8.80
2023-04-11T07:20:26.026Z,8.90
2023-04-11T07:22:54.111Z,8.90
2023-04-11T07:25:22.792Z,8.90
2023-04-11T07:27:51.537Z,9.00
2023-04-11T07:30:18.911Z,9.00
2023-04-11T07:32:46.378Z,9.00
2023-04-11T07:35:14.121Z,9.10
2023-04-11T07:37:42.591Z,9.10
2023-04-11T07:40:12.038Z,9.10
2023-04-11T07:42:39.549Z,9.10
2023-04-11T07:45:08.143Z,9.20
2023-04-11T07:47:35.757Z,9.20
2023-04-11T07:50:04.353Z,9.20
2023-04-11T07:52:32.140Z,9.30
2023-04-11T07:54:59.506Z,9.30
2023-04-11T07:57:26.765Z,9.40
2023-04-11T07:59:54.072Z,9.40
2023-04-11T08:02:21.538Z,9.30
2023-04-11T08:04:49.048Z,9.40
2023-04-11T08:07:22.197Z,9.40
2023-04-11T08:09:50.477Z,9.40
2023-04-11T08:12:17.827Z,9.50
2023-04-11T08:14:45.418Z,8.40
2023-04-11T08:17:25.460Z,9.60
2023-04-11T08:19:57.473Z,9.60
2023-04-11T08:22:24.981Z,9.60
2023-04-11T08:24:52.752Z,9.70
2023-04-11T08:27:20.233Z,9.70
2023-04-11T08:29:47.525Z,9.70
2023-04-11T08:32:14.874Z,9.80
2023-04-11T08:34:42.708Z,9.80
2023-04-11T08:37:10.127Z,9.90
2023-04-11T08:39:37.392Z,9.90
2023-04-11T08:42:05.073Z,10.10
2023-04-11T08:44:32.427Z,10.10
2023-04-11T08:46:59.819Z,10.10
2023-04-11T08:49:27.079Z,10.10
2023-04-11T08:51:56.236Z,10.10
2023-04-11T08:54:23.544Z,10.10
2023-04-11T08:56:50.926Z,10.20
2023-04-11T08:59:19.555Z,10.10
2023-04-11T09:01:47.048Z,10.20
2023-04-11T09:04:14.362Z,9.10
2023-04-11T09:06:57.454Z,10.30
2023-04-11T09:09:31.045Z,10.40
2023-04-11T09:11:59.058Z,10.50
2023-04-11T09:14:27.030Z,10.60
2023-04-11T09:16:56.021Z,10.60
2023-04-11T09:19:31.861Z,10.60
2023-04-11T09:22:06.631Z,10.60
2023-04-11T09:24:35.726Z,10.70
2023-04-11T09:27:12.131Z,10.80
2023-04-11T09:29:48.733Z,10.90
2023-04-11T09:32:36.522Z,11.00
2023-04-11T09:35:13.204Z,11.00
2023-04-11T09:37:52.778Z,11.10
2023-04-11T09:40:33.369Z,11.20
2023-04-11T09:43:02.461Z,11.20
2023-04-11T09:45:38.155Z,11.20
2023-04-11T09:48:12.937Z,11.20
2023-04-11T09:50:41.099Z,11.20
2023-04-11T09:53:10.844Z,11.20
2023-04-11T09:55:39.292Z,11.40
2023-04-11T09:58:10.408Z,11.40
2023-04-11T10:00:37.736Z,11.40
2023-04-11T10:03:05.085Z,11.50
2023-04-11T10:05:33.280Z,11.60
2023-04-11T10:08:13.070Z,11.70
2023-04-11T10:10:43.705Z,11.80
2023-04-11T10:13:43.123Z,11.90
2023-04-11T10:16:17.301Z,12.00
2023-04-11T10:18:53.793Z,12.10
2023-04-11T10:21:41.192Z,12.20
2023-04-11T10:24:13.470Z,12.20
2023-04-11T10:26:56.302Z,12.20
2023-04-11T10:29:40.775Z,12.10
2023-04-11T10:32:12.332Z,12.10
2023-04-11T10:34:41.998Z,12.10
2023-04-11T10:37:10.455Z,12.10
2023-04-11T10:40:10.307Z,12.10
2023-04-11T10:42:44.240Z,12.20
2023-04-11T10:45:41.616Z,12.30
2023-04-11T10:48:13.516Z,12.40
2023-04-11T10:50:43.020Z,12.40
2023-04-11T10:53:34.062Z,12.50
2023-04-11T10:56:02.029Z,12.60
2023-04-11T10:58:40.013Z,12.80
2023-04-11T11:01:25.866Z,12.80
2023-04-11T11:04:03.908Z,12.80
2023-04-11T11:06:38.080Z,12.90
2023-04-11T11:09:23.746Z,12.80
2023-04-11T11:12:10.025Z,12.90
2023-04-11T11:14:40.451Z,13.10
2023-04-11T11:17:09.081Z,13.60
2023-04-11T11:19:36.672Z,13.10
2023-04-11T11:22:04.847Z,13.20
2023-04-11T11:24:32.628Z,13.30
2023-04-11T11:27:01.343Z,13.30
2023-04-11T11:29:37.782Z,13.40
2023-04-11T11:32:06.606Z,13.50
2023-04-11T11:34:35.219Z,13.50
2023-04-11T11:37:06.673Z,13.60
2023-04-11T11:39:34.771Z,13.70
2023-04-11T11:42:02.433Z,13.70
2023-04-11T11:44:31.439Z,13.70
2023-04-11T11:47:02.292Z,13.70
2023-04-11T11:49:47.349Z,13.70
2023-04-11T11:52:43.692Z,13.70
2023-04-11T11:55:20.344Z,13.60
2023-04-11T11:57:49.032Z,13.70
2023-04-11T12:00:27.284Z,13.70
2023-04-11T12:02:56.817Z,13.70
2023-04-11T12:05:25.493Z,13.70
2023-04-11T12:07:57.447Z,13.60
2023-04-11T12:10:26.285Z,13.70
2023-04-11T12:12:54.372Z,13.70
2023-04-11T12:15:23.683Z,13.90
2023-04-11T12:17:54.963Z,13.90
2023-04-11T12:20:23.971Z,13.90
2023-04-11T12:22:53.663Z,13.90
2023-04-11T12:25:22.711Z,13.90
2023-04-11T12:27:49.992Z,14.20
2023-04-11T12:30:17.570Z,14.00
2023-04-11T12:32:45.666Z,13.90
2023-04-11T12:35:13.659Z,14.00
2023-04-11T12:37:41.306Z,14.00
2023-04-11T12:40:10.974Z,14.00
2023-04-11T12:42:49.554Z,14.00
2023-04-11T12:45:23.161Z,14.00
2023-04-11T12:47:51.077Z,14.30
2023-04-11T12:50:18.686Z,13.80
2023-04-11T12:52:46.372Z,13.60
2023-04-11T12:55:13.791Z,13.50
2023-04-11T12:57:42.480Z,13.30
2023-04-11T13:00:13.541Z,13.10
2023-04-11T13:02:44.603Z,13.00
2023-04-11T13:05:17.016Z,13.10
2023-04-11T13:07:45.411Z,12.80
2023-04-11T13:10:14.114Z,12.70
2023-04-11T13:12:44.590Z,12.70
2023-04-11T13:15:16.727Z,12.90
2023-04-11T13:17:44.695Z,13.00
2023-04-11T13:20:13.011Z,13.00
2023-04-11T13:22:41.868Z,13.10
2023-04-11T13:25:10.613Z,13.10
2023-04-11T13:27:39.749Z,13.10
2023-04-11T13:30:08.936Z,13.10
2023-04-11T13:32:36.762Z,12.80
2023-04-11T13:35:04.375Z,12.90
2023-04-11T13:37:31.977Z,12.80
2023-04-11T13:39:59.299Z,13.10
2023-04-11T13:42:26.705Z,12.70
2023-04-11T13:44:54.190Z,12.80
2023-04-11T13:47:21.565Z,12.90
2023-04-11T13:49:49.044Z,12.90
2023-04-11T13:52:16.468Z,13.00
2023-04-11T13:54:43.977Z,13.00
2023-04-11T13:57:11.596Z,13.10
2023-04-11T13:59:38.921Z,13.10
2023-04-11T14:02:06.289Z,13.10
2023-04-11T14:04:33.705Z,13.10
2023-04-11T14:07:01.147Z,13.10
2023-04-11T14:09:28.502Z,13.10
2023-04-11T14:11:56.975Z,12.20
2023-04-11T14:14:25.619Z,12.90
2023-04-11T14:16:53.566Z,13.00
2023-04-11T14:19:22.749Z,12.90
2023-04-11T14:21:52.079Z,12.60
2023-04-11T14:24:22.166Z,12.90
2023-04-11T14:26:50.514Z,12.90
2023-04-11T14:29:18.824Z,12.90
2023-04-11T14:31:47.324Z,12.90
2023-04-11T14:34:15.244Z,12.90
2023-04-11T14:36:42.592Z,13.00
2023-04-11T14:39:09.926Z,12.90
2023-04-11T14:41:37.228Z,12.90
2023-04-11T14:44:04.567Z,12.80
2023-04-11T14:46:32.048Z,12.80
2023-04-11T14:48:59.374Z,12.70
2023-04-11T14:51:28.898Z,12.70
2023-04-11T14:53:56.897Z,13.50
2023-04-11T14:56:25.095Z,12.80
2023-04-11T14:58:53.290Z,12.60
2023-04-11T15:01:20.976Z,13.00
2023-04-11T15:03:48.936Z,12.70
2023-04-11T15:06:16.393Z,12.70
2023-04-11T15:08:43.744Z,12.70
2023-04-11T15:11:11.513Z,12.70
2023-04-11T15:13:39.199Z,12.90
2023-04-11T15:16:06.879Z,12.70
2023-04-11T15:18:35.606Z,12.60
2023-04-11T15:21:03.468Z,12.60
2023-04-11T15:23:31.254Z,12.60
2023-04-11T15:26:00.604Z,12.60
2023-04-11T15:28:34.378Z,12.50
2023-04-11T15:31:02.766Z,12.40
2023-04-11T15:33:31.897Z,12.40
2023-04-11T15:36:00.681Z,12.40
2023-04-11T15:38:28.801Z,13.20
2023-04-11T15:41:00.046Z,12.40
2023-04-11T15:43:27.914Z,12.40
2023-04-11T15:45:55.334Z,12.40
2023-04-11T15:48:22.804Z,12.30
2023-04-11T15:50:51.064Z,12.50
2023-04-11T15:53:18.596Z,12.00
2023-04-11T15:55:47.584Z,11.90
2023-04-11T15:58:15.217Z,12.50
2023-04-11T16:00:44.767Z,11.70
2023-04-11T16:03:12.340Z,11.70
2023-04-11T16:05:43.157Z,11.30
2023-04-11T16:08:11.117Z,11.60
2023-04-11T16:10:38.697Z,11.50
2023-04-11T16:13:06.133Z,11.40
2023-04-11T16:15:33.603Z,11.30
2023-04-11T16:18:01.239Z,11.30
2023-04-11T16:20:29.078Z,11.50
2023-04-11T16:22:57.533Z,11.10
2023-04-11T16:25:24.946Z,11.10
2023-04-11T16:27:53.011Z,11.10
2023-04-11T16:30:20.558Z,11.10
2023-04-11T16:32:48.004Z,11.10
2023-04-11T16:35:15.541Z,11.00
2023-04-11T16:37:42.837Z,10.90
2023-04-11T16:40:13.270Z,10.80
2023-04-11T16:42:40.641Z,10.70
2023-04-11T16:45:09.882Z,10.60
2023-04-11T16:47:37.398Z,10.60
2023-04-11T16:50:05.988Z,10.40
2023-04-11T16:52:33.914Z,10.30
2023-04-11T16:55:02.915Z,10.20
2023-04-11T16:57:33.325Z,10.20
2023-04-11T17:00:02.652Z,10.30
2023-04-11T17:02:30.152Z,10.10
2023-04-11T17:10:03.644Z,10.00
2023-04-11T17:12:31.816Z,10.10
2023-04-11T17:15:02.654Z,10.10
2023-04-11T17:17:30.033Z,10.20
2023-04-11T17:19:57.393Z,10.10
2023-04-11T17:22:24.713Z,10.10
2023-04-11T17:24:52.094Z,10.10
2023-04-11T17:27:19.482Z,10.10
2023-04-11T17:29:46.833Z,10.10
2023-04-11T17:32:14.308Z,9.90
2023-04-11T17:34:41.754Z,10.00
2023-04-11T17:37:09.551Z,10.00
2023-04-11T17:39:37.468Z,9.90
2023-04-11T17:46:32.507Z,9.80
2023-04-11T17:48:59.902Z,9.80
2023-04-11T17:51:28.264Z,9.90
2023-04-11T17:53:57.001Z,9.90
2023-04-11T17:56:24.816Z,9.90
2023-04-11T17:58:53.117Z,9.80
2023-04-11T18:01:20.908Z,9.80
2023-04-11T18:03:50.502Z,9.80
2023-04-11T18:06:18.330Z,9.70
2023-04-11T18:08:51.493Z,9.40
2023-04-11T18:11:19.782Z,9.80
2023-04-11T18:13:49.793Z,9.90
2023-04-11T18:16:18.476Z,9.90
2023-04-11T18:18:47.208Z,9.80
2023-04-11T18:21:17.830Z,9.70
2023-04-11T18:23:45.777Z,9.70
2023-04-11T18:26:13.265Z,9.70
2023-04-11T18:28:40.769Z,9.70
2023-04-11T18:31:08.754Z,9.70
2023-04-11T18:33:37.180Z,9.60
2023-04-11T18:36:08.427Z,9.70
2023-04-11T18:38:36.088Z,9.70
2023-04-11T18:41:06.153Z,9.60
2023-04-11T18:43:34.909Z,9.50
2023-04-11T18:46:02.422Z,9.60
2023-04-11T18:48:30.864Z,9.60
2023-04-11T18:51:01.711Z,9.60
2023-04-11T18:53:30.211Z,9.50
2023-04-11T18:56:03.228Z,9.60
2023-04-11T18:59:16.855Z,9.60
2023-04-11T19:13:37.689Z,9.40
2023-04-11T19:16:05.523Z,9.40
2023-04-11T19:18:38.924Z,9.40
2023-04-11T19:21:06.603Z,9.50
2023-04-11T19:23:33.911Z,9.60
2023-04-11T19:26:02.318Z,9.50
2023-04-11T19:36:00.494Z,9.50
2023-04-11T19:41:53.783Z,9.30
2023-04-11T19:44:21.317Z,9.30
2023-04-11T19:46:48.576Z,9.30
2023-04-11T19:49:16.843Z,9.40
2023-04-11T19:51:44.782Z,9.30
2023-04-11T19:54:12.088Z,9.40
2023-04-11T19:56:44.341Z,9.40
2023-04-11T19:59:11.778Z,9.50
2023-04-11T20:01:39.260Z,9.40
2023-04-11T20:04:06.885Z,9.20
2023-04-11T20:06:34.977Z,9.30
2023-04-11T20:09:02.915Z,9.30
2023-04-11T20:11:30.590Z,9.20
2023-04-11T20:13:58.171Z,9.30
2023-04-11T20:16:26.460Z,9.10
2023-04-11T20:18:54.505Z,9.20
2023-04-11T20:21:21.935Z,10.00
2023-04-11T20:23:49.784Z,9.10
2023-04-11T20:26:17.111Z,9.30
2023-04-11T20:28:44.394Z,9.40
2023-04-11T20:31:11.935Z,9.30
2023-04-11T20:33:39.272Z,8.90
2023-04-11T20:36:07.846Z,9.30
2023-04-11T20:38:35.227Z,9.30
2023-04-11T20:41:04.002Z,9.40
2023-04-11T20:43:31.675Z,9.20
2023-04-11T20:45:59.010Z,9.30
2023-04-11T20:48:29.658Z,9.30
2023-04-11T20:50:57.087Z,9.30
2023-04-11T20:53:25.582Z,9.30
2023-04-11T20:55:54.782Z,9.70
2023-04-11T20:58:22.221Z,9.40
2023-04-11T21:00:52.561Z,9.50
2023-04-11T21:03:20.244Z,9.40
2023-04-11T21:05:47.661Z,9.50
2023-04-11T21:08:15.122Z,9.50
2023-04-11T21:10:42.710Z,9.50
2023-04-11T21:13:10.394Z,9.50
2023-04-11T21:15:38.512Z,9.50
2023-04-11T21:18:07.488Z,9.50
2023-04-11T21:20:35.881Z,10.60
2023-04-11T21:23:03.345Z,9.50
2023-04-11T21:25:30.928Z,9.50
2023-04-11T21:27:58.485Z,9.50
2023-04-11T21:30:26.096Z,9.50
2023-04-11T21:32:53.629Z,9.60
2023-04-11T21:35:21.025Z,9.60
2023-04-11T21:37:49.251Z,9.70
2023-04-11T21:40:17.044Z,9.70
2023-04-11T21:42:44.531Z,9.60
2023-04-11T21:45:11.846Z,9.70
2023-04-11T21:47:39.273Z,9.90
2023-04-11T21:50:07.208Z,9.80
2023-04-11T21:52:34.546Z,9.80
2023-04-11T21:55:01.872Z,9.80
2023-04-11T21:58:38.688Z,9.90
2023-04-11T22:01:24.290Z,10.00
2023-04-11T22:07:49.219Z,10.00
2023-04-11T22:10:23.782Z,9.90
2023-04-11T22:12:54.061Z,9.80
2023-04-11T22:15:21.621Z,9.90
2023-04-11T22:17:50.778Z,9.80
2023-04-11T22:23:34.228Z,9.90
2023-04-11T22:26:01.607Z,8.90
2023-04-11T22:28:28.999Z,9.90
2023-04-11T22:30:57.692Z,9.80
2023-04-11T22:33:37.036Z,9.80
2023-04-11T22:36:19.352Z,9.30
2023-04-11T22:39:14.517Z,9.80
2023-04-11T22:41:56.549Z,9.80
2023-04-11T22:44:29.986Z,9.90
2023-04-11T22:47:26.522Z,9.70
2023-04-11T22:50:00.592Z,9.70
2023-04-11T22:53:15.401Z,9.60
2023-04-11T22:55:53.870Z,9.60
2023-04-11T23:01:36.636Z,9.50
2023-04-11T23:04:16.857Z,9.50
2023-04-11T23:06:51.468Z,9.50
2023-04-11T23:09:26.084Z,9.50
2023-04-11T23:15:03.102Z,9.40
2023-04-11T23:17:51.159Z,9.40
2023-04-11T23:20:31.765Z,9.40
2023-04-11T23:23:05.114Z,9.40
2023-04-11T23:25:43.853Z,9.40
2023-04-11T23:28:13.579Z,9.80
2023-04-11T23:30:58.693Z,9.20
2023-04-11T23:33:41.037Z,9.20
2023-04-11T23:36:21.252Z,9.20
2023-04-11T23:38:53.185Z,9.10
2023-04-11T23:41:26.822Z,9.10
2023-04-11T23:43:58.643Z,9.10
2023-04-11T23:46:27.771Z,9.10
2023-04-11T23:48:55.601Z,9.00
2023-04-11T23:52:02.421Z,9.00
2023-04-11T23:55:07.736Z,9.00
2023-04-11T23:57:49.490Z,9.00
